Time;durP1;ratioP1;P1;durP2;ratioP2;P2;SDS_P1;SDS_P2;PMS_P1;PMS_P2;Temp;Humidity;BMP_temperature;BMP_pressure;BME280_temperature;BME280_humidity;BME280_pressure;Samples;Min_cycle;Max_cycle;Signal;HPM_P1;HPM_P2
2021/08/17 00:00:13;;;;;;;20.83;10.27;;;;;;;23.36;62.38;98053.08;125640;1092;102959;-74
2021/08/17 00:03:02;;;;;;;20.27;10.63;;;;;;;23.33;62.44;98048.94;125638;1093;103061;-74
2021/08/17 00:05:31;;;;;;;23.37;11.20;;;;;;;23.31;62.33;98037.48;125719;1092;102935;-75
2021/08/17 00:08:02;;;;;;;24.17;10.90;;;;;;;23.31;62.47;98027.44;125684;1095;102945;-75
2021/08/17 00:10:30;;;;;;;20.67;10.83;;;;;;;23.28;62.43;98021.64;125722;1093;102917;-75
2021/08/17 00:12:59;;;;;;;20.23;10.83;;;;;;;23.27;62.50;98015.36;125652;1094;103071;-75
2021/08/17 00:15:28;;;;;;;24.03;10.50;;;;;;;23.25;62.22;98006.61;125672;1093;103066;-76
2021/08/17 00:17:57;;;;;;;20.73;11.20;;;;;;;23.22;62.12;97998.94;125699;1093;102994;-75
2021/08/17 00:20:25;;;;;;;21.63;11.07;;;;;;;23.19;62.63;97994.74;125697;1093;102923;-75
2021/08/17 00:22:54;;;;;;;20.93;10.17;;;;;;;23.18;62.22;97975.98;125670;1097;102945;-76
2021/08/17 00:25:22;;;;;;;21.10;10.10;;;;;;;23.17;62.24;97979.75;125650;1093;103001;-75
2021/08/17 00:27:50;;;;;;;21.40;10.57;;;;;;;23.17;62.25;97990.60;125631;1093;102997;-76
2021/08/17 00:30:19;;;;;;;21.23;9.93;;;;;;;23.16;62.23;97997.08;125673;1094;103024;-75
2021/08/17 00:32:48;;;;;;;20.67;9.67;;;;;;;23.13;62.00;98013.78;125697;1093;103121;-75
2021/08/17 00:35:16;;;;;;;21.30;10.17;;;;;;;23.11;62.27;98019.41;125688;1093;102939;-74
2021/08/17 00:37:45;;;;;;;21.07;11.00;;;;;;;23.10;62.17;98012.33;125635;1093;102994;-74
2021/08/17 00:40:13;;;;;;;22.53;10.40;;;;;;;23.08;62.58;98011.71;125649;1093;103031;-76
2021/08/17 00:42:43;;;;;;;25.70;11.67;;;;;;;23.07;62.57;98010.05;125678;1093;102913;-75
2021/08/17 00:45:32;;;;;;;22.47;11.00;;;;;;;23.06;62.11;98013.81;125670;1093;102934;-75
2021/08/17 00:48:00;;;;;;;20.55;10.35;;;;;;;23.03;62.39;98020.52;125717;1093;103088;-77
2021/08/17 00:50:34;;;;;;;23.50;11.43;;;;;;;23.02;62.07;98018.03;125664;1092;102909;-77
2021/08/17 00:53:04;;;;;;;22.10;10.50;;;;;;;23.01;62.77;98010.95;125677;1093;103119;-77
2021/08/17 00:55:33;;;;;;;22.70;11.57;;;;;;;23.00;62.63;98012.00;125703;1093;102916;-76
2021/08/17 00:58:02;;;;;;;28.23;11.73;;;;;;;22.97;62.54;98012.43;125614;1093;102931;-76
2021/08/17 01:00:31;;;;;;;23.53;12.07;;;;;;;22.95;62.65;98015.34;125691;1093;103009;-77
2021/08/17 01:02:59;;;;;;;22.90;12.00;;;;;;;22.93;62.91;98012.02;125667;1093;103021;-77
2021/08/17 01:05:30;;;;;;;23.15;11.80;;;;;;;22.90;62.39;98015.16;125584;1093;103173;-76
2021/08/17 01:07:59;;;;;;;22.05;10.65;;;;;;;22.88;62.76;98026.23;125664;1092;102913;-76
2021/08/17 01:10:28;;;;;;;19.50;10.80;;;;;;;22.87;62.67;98045.41;126009;1093;102913;-76
2021/08/17 01:12:57;;;;;;;23.40;11.83;;;;;;;22.84;62.59;98071.09;125694;1093;103341;-76
2021/08/17 01:15:25;;;;;;;22.57;11.53;;;;;;;22.83;62.71;98111.95;125705;1093;102929;-75
2021/08/17 01:17:53;;;;;;;23.17;10.67;;;;;;;22.81;62.46;98162.88;125581;1093;103183;-76
2021/08/17 01:20:25;;;;;;;20.93;10.07;;;;;;;22.73;62.72;98220.84;125677;1093;103033;-76
2021/08/17 01:22:54;;;;;;;22.40;10.43;;;;;;;22.63;64.94;98256.51;125734;1095;103068;-77
2021/08/17 01:25:24;;;;;;;19.30;7.60;;;;;;;22.44;62.95;98293.41;125739;1095;102919;-74
2021/08/17 01:27:52;;;;;;;20.40;5.80;;;;;;;21.99;62.46;98262.28;125717;1093;102937;-75
2021/08/17 01:30:22;;;;;;;19.30;5.97;;;;;;;21.43;62.63;98220.05;125670;1092;102971;-77
2021/08/17 01:32:51;;;;;;;15.97;6.37;;;;;;;21.08;62.37;98226.35;125691;1093;103004;-75
2021/08/17 01:35:19;;;;;;;17.20;6.03;;;;;;;20.89;63.13;98216.28;125636;1093;102936;-76
2021/08/17 01:37:47;;;;;;;14.73;5.70;;;;;;;20.68;63.14;98185.56;125685;1093;103004;-75
2021/08/17 01:40:16;;;;;;;14.50;5.53;;;;;;;20.56;63.21;98181.77;125661;1093;103107;-73
2021/08/17 01:42:52;;;;;;;14.37;5.37;;;;;;;20.44;63.29;98159.85;125623;1093;103032;-75
2021/08/17 01:45:22;;;;;;;14.63;5.60;;;;;;;20.31;63.31;98142.55;126067;1095;103167;-76
2021/08/17 01:47:53;;;;;;;15.50;4.83;;;;;;;20.27;63.41;98143.13;125694;1092;103022;-74
2021/08/17 01:50:24;;;;;;;17.23;5.67;;;;;;;20.25;63.65;98161.38;125638;1093;102908;-74
2021/08/17 01:52:53;;;;;;;12.20;4.65;;;;;;;20.22;63.71;98171.55;125636;1093;102901;-74
2021/08/17 01:55:21;;;;;;;12.23;4.90;;;;;;;20.17;63.58;98167.77;125679;1093;103079;-74
2021/08/17 01:57:50;;;;;;;13.93;4.93;;;;;;;20.13;63.80;98177.29;125624;1093;103230;-75
2021/08/17 02:00:19;;;;;;;11.17;4.17;;;;;;;20.05;63.52;98176.39;125627;1093;103009;-74
2021/08/17 02:02:47;;;;;;;11.07;4.10;;;;;;;20.00;63.82;98173.44;125684;1093;102993;-74
2021/08/17 02:05:20;;;;;;;11.37;4.40;;;;;;;19.91;63.57;98198.92;125662;1092;103525;-74
2021/08/17 02:07:51;;;;;;;13.95;4.40;;;;;;;19.79;63.59;98203.94;125669;1093;102942;-73
2021/08/17 02:10:21;;;;;;;14.70;5.40;;;;;;;19.73;63.92;98207.44;125705;1092;103001;-75
2021/08/17 02:12:49;;;;;;;15.10;4.70;;;;;;;19.71;63.98;98221.09;125636;1095;103008;-74
2021/08/17 02:15:18;;;;;;;11.23;4.17;;;;;;;19.69;63.80;98200.75;125669;1096;102904;-74
2021/08/17 02:17:46;;;;;;;11.97;4.27;;;;;;;19.62;64.19;98206.05;125674;1096;102938;-73
2021/08/17 02:20:15;;;;;;;15.83;5.03;;;;;;;19.60;64.55;98210.80;125670;1093;103142;-73
2021/08/17 02:22:44;;;;;;;13.63;4.30;;;;;;;19.58;64.17;98219.09;125670;1092;103015;-73
2021/08/17 02:25:13;;;;;;;11.60;4.00;;;;;;;19.53;64.42;98232.31;125670;1096;102952;-74
2021/08/17 02:27:42;;;;;;;8.83;3.57;;;;;;;19.43;64.14;98229.08;125709;1095;102936;-73
2021/08/17 02:30:11;;;;;;;10.63;3.70;;;;;;;19.40;64.46;98234.84;125680;1093;102983;-73
2021/08/17 02:32:39;;;;;;;8.90;3.53;;;;;;;19.38;64.41;98236.89;125649;1093;102920;-74
2021/08/17 02:35:08;;;;;;;10.40;3.77;;;;;;;19.37;65.04;98240.61;125686;1095;103345;-74
2021/08/17 02:37:37;;;;;;;11.80;4.00;;;;;;;19.36;64.66;98241.67;125663;1095;102991;-75
2021/08/17 02:40:06;;;;;;;10.97;3.83;;;;;;;19.28;64.62;98238.05;125692;1092;102988;-75
2021/08/17 02:42:35;;;;;;;11.47;3.57;;;;;;;19.16;64.54;98234.16;125649;1094;102970;-74
2021/08/17 02:45:04;;;;;;;12.47;4.30;;;;;;;19.03;64.70;98242.91;125628;1096;103084;-74
2021/08/17 02:47:34;;;;;;;12.57;3.90;;;;;;;18.93;65.08;98235.08;125744;1093;103962;-75
2021/08/17 02:50:03;;;;;;;11.20;3.90;;;;;;;18.85;65.39;98240.55;125662;1093;103028;-75
2021/08/17 02:52:31;;;;;;;9.60;3.80;;;;;;;18.78;65.48;98234.23;125698;1093;102908;-74
2021/08/17 02:55:00;;;;;;;13.10;3.97;;;;;;;18.70;65.50;98241.38;125690;1094;103173;-73
2021/08/17 02:57:28;;;;;;;7.77;3.60;;;;;;;18.64;65.71;98238.59;125662;1093;103141;-74
2021/08/17 02:59:57;;;;;;;11.20;4.00;;;;;;;18.61;65.56;98239.77;125661;1093;103029;-73
2021/08/17 03:02:25;;;;;;;9.43;3.73;;;;;;;18.60;65.70;98230.02;125679;1093;103060;-74
2021/08/17 03:04:54;;;;;;;11.33;4.27;;;;;;;18.57;65.59;98223.16;125684;1093;102939;-73
2021/08/17 03:07:22;;;;;;;13.30;4.27;;;;;;;18.58;66.12;98232.91;125679;1093;103038;-75
2021/08/17 03:09:51;;;;;;;10.33;4.17;;;;;;;18.59;65.72;98229.20;125659;1096;103044;-74
2021/08/17 03:12:19;;;;;;;11.23;4.10;;;;;;;18.58;66.07;98238.30;125675;1096;102946;-74
2021/08/17 03:14:48;;;;;;;12.77;4.00;;;;;;;18.55;66.20;98241.36;125639;1096;102997;-73
2021/08/17 03:17:16;;;;;;;9.17;3.70;;;;;;;18.51;66.32;98236.53;125698;1096;103048;-73
2021/08/17 03:19:44;;;;;;;8.45;3.55;;;;;;;18.48;66.41;98240.41;125679;1096;102998;-74
2021/08/17 03:22:13;;;;;;;9.70;3.23;;;;;;;18.45;66.18;98240.77;125688;1096;103026;-74
2021/08/17 03:24:41;;;;;;;8.03;3.30;;;;;;;18.44;66.51;98241.80;125668;1095;102909;-74
2021/08/17 03:27:10;;;;;;;8.93;2.93;;;;;;;18.37;66.74;98244.39;125671;1096;102916;-74
2021/08/17 03:29:38;;;;;;;6.23;2.93;;;;;;;18.32;66.67;98241.41;125706;1096;103439;-74
2021/08/17 03:32:07;;;;;;;9.70;3.43;;;;;;;18.29;66.90;98242.62;125694;1093;102943;-73
2021/08/17 03:34:35;;;;;;;5.60;2.83;;;;;;;18.28;66.61;98250.86;125667;1094;103093;-73
2021/08/17 03:37:03;;;;;;;6.07;3.00;;;;;;;18.27;66.81;98254.56;125658;1093;103374;-72
2021/08/17 03:39:32;;;;;;;8.35;3.40;;;;;;;18.30;67.08;98267.66;125653;1093;102908;-72
2021/08/17 03:42:00;;;;;;;8.00;4.00;;;;;;;18.33;67.04;98258.41;125691;1093;103034;-72
2021/08/17 03:44:28;;;;;;;12.07;4.63;;;;;;;18.34;66.83;98274.36;125733;1093;103008;-72
2021/08/17 03:46:57;;;;;;;13.10;4.67;;;;;;;18.26;67.29;98282.50;125686;1096;103039;-74
2021/08/17 03:49:25;;;;;;;13.57;5.43;;;;;;;18.15;66.71;98273.83;125637;1096;103035;-73
2021/08/17 03:51:53;;;;;;;12.47;5.07;;;;;;;18.08;67.42;98277.42;125670;1093;103547;-74
2021/08/17 03:54:22;;;;;;;17.23;5.60;;;;;;;18.00;66.99;98278.33;125660;1095;103012;-73
2021/08/17 03:56:50;;;;;;;12.45;5.30;;;;;;;17.93;67.17;98278.16;125680;1093;103009;-73
2021/08/17 03:59:18;;;;;;;13.43;4.80;;;;;;;17.86;67.55;98271.84;125671;1093;103186;-72
2021/08/17 04:01:47;;;;;;;13.43;5.57;;;;;;;17.82;67.12;98246.31;125672;1096;103009;-74
2021/08/17 04:04:16;;;;;;;16.00;5.65;;;;;;;17.75;67.06;98205.83;125632;1096;103058;-75
2021/08/17 04:06:45;;;;;;;11.97;4.67;;;;;;;17.70;67.34;98216.30;125696;1096;102951;-75
2021/08/17 04:09:13;;;;;;;12.83;5.03;;;;;;;17.65;67.54;98264.41;125670;1096;103048;-73
2021/08/17 04:11:41;;;;;;;11.93;5.03;;;;;;;17.61;67.30;98257.70;125630;1096;103198;-74
2021/08/17 04:14:10;;;;;;;13.67;5.40;;;;;;;17.55;67.52;98262.77;125650;1096;102983;-73
2021/08/17 04:16:38;;;;;;;13.53;5.50;;;;;;;17.50;67.55;98277.77;125657;1096;103078;-79
2021/08/17 04:19:06;;;;;;;17.17;5.27;;;;;;;17.48;67.51;98277.10;125718;1093;102913;-76
2021/08/17 04:21:35;;;;;;;13.07;5.10;;;;;;;17.41;67.78;98283.17;125637;1094;102911;-74
2021/08/17 04:24:03;;;;;;;14.40;5.37;;;;;;;17.37;68.00;98270.23;125645;1093;103139;-76
2021/08/17 04:26:32;;;;;;;17.73;5.40;;;;;;;17.30;67.64;98262.05;125685;1093;103063;-74
2021/08/17 04:29:00;;;;;;;14.17;5.30;;;;;;;17.30;67.77;98269.29;125667;1093;103076;-75
2021/08/17 04:31:30;;;;;;;12.97;5.23;;;;;;;17.32;67.89;98272.64;125682;1093;102912;-74
2021/08/17 04:33:59;;;;;;;14.30;6.05;;;;;;;17.31;67.55;98273.66;125724;1093;103616;-75
2021/08/17 04:36:27;;;;;;;14.13;5.63;;;;;;;17.30;69.92;98288.92;125664;1093;103044;-73
2021/08/17 04:38:55;;;;;;;15.37;5.17;;;;;;;17.28;67.97;98290.13;125719;1093;102913;-75
2021/08/17 04:41:25;;;;;;;13.13;5.60;;;;;;;17.29;68.15;98281.05;125664;1093;103034;-74
2021/08/17 04:43:53;;;;;;;16.00;5.43;;;;;;;17.29;67.77;98278.36;125719;1093;102914;-73
2021/08/17 04:46:21;;;;;;;16.40;5.70;;;;;;;17.32;68.05;98278.84;125712;1093;102994;-74
2021/08/17 04:48:50;;;;;;;13.63;5.30;;;;;;;17.35;68.08;98269.58;125674;1093;103533;-73
2021/08/17 04:51:19;;;;;;;19.43;6.13;;;;;;;17.37;68.13;98278.30;125655;1092;102994;-73
2021/08/17 04:53:48;;;;;;;13.97;5.60;;;;;;;17.39;67.96;98274.45;125676;1093;102953;-68
2021/08/17 04:56:16;;;;;;;17.77;5.73;;;;;;;17.41;68.23;98280.48;125682;1093;103006;-74
2021/08/17 04:58:44;;;;;;;13.60;5.20;;;;;;;17.41;67.87;98272.42;125684;1093;102996;-74
2021/08/17 05:01:13;;;;;;;18.40;6.93;;;;;;;17.44;68.16;98262.33;125656;1097;103058;-73
2021/08/17 05:03:42;;;;;;;13.90;5.90;;;;;;;17.50;68.31;98250.88;125723;1092;102918;-77
2021/08/17 05:06:10;;;;;;;13.43;5.60;;;;;;;17.54;68.25;98247.65;125693;1093;103036;-74
2021/08/17 05:08:39;;;;;;;13.97;5.17;;;;;;;17.61;68.16;98265.77;125661;1093;103031;-72
2021/08/17 05:11:08;;;;;;;20.17;7.03;;;;;;;17.67;68.57;98265.06;125697;1093;102998;-78
2021/08/17 05:13:37;;;;;;;18.63;5.83;;;;;;;17.72;68.01;98270.75;125623;1096;103005;-78
2021/08/17 05:16:06;;;;;;;13.10;5.87;;;;;;;17.78;68.28;98278.09;125658;1096;103047;-71
2021/08/17 05:18:35;;;;;;;15.43;5.90;;;;;;;17.79;68.31;98274.38;125653;1093;102996;-71
2021/08/17 05:21:03;;;;;;;16.07;5.10;;;;;;;17.83;68.32;98261.44;125671;1093;102933;-72
2021/08/17 05:23:32;;;;;;;14.30;5.87;;;;;;;17.86;68.22;98264.59;125713;1093;103026;-71
2021/08/17 05:26:00;;;;;;;16.07;6.43;;;;;;;17.91;67.99;98253.31;125667;1093;103019;-70
2021/08/17 05:28:30;;;;;;;13.33;5.50;;;;;;;17.96;68.05;98239.31;125664;1093;103092;-76
2021/08/17 05:30:58;;;;;;;14.97;5.57;;;;;;;18.01;68.02;98239.64;125687;1093;102916;-69
2021/08/17 05:33:27;;;;;;;13.30;5.43;;;;;;;18.08;68.59;98237.06;125708;1094;102919;-72
2021/08/17 05:35:55;;;;;;;14.60;5.40;;;;;;;18.17;68.47;98245.89;125641;1093;103387;-74
2021/08/17 05:38:23;;;;;;;18.47;5.87;;;;;;;18.19;67.94;98273.47;125643;1093;103177;-73
2021/08/17 05:40:52;;;;;;;16.73;5.97;;;;;;;18.13;67.96;98275.03;125669;1093;103041;-70
2021/08/17 05:43:20;;;;;;;14.63;5.50;;;;;;;18.09;68.33;98298.79;125657;1092;103128;-71
2021/08/17 05:46:06;;;;;;;14.53;5.83;;;;;;;18.04;68.31;98305.70;125678;1095;103036;-69
2021/08/17 05:48:40;;;;;;;14.37;5.70;;;;;;;18.00;68.11;98316.82;125658;1096;103006;-69
2021/08/17 05:51:09;;;;;;;19.45;6.25;;;;;;;18.00;68.20;98329.45;125653;1095;103005;-70
2021/08/17 05:53:38;;;;;;;16.30;5.47;;;;;;;18.05;68.42;98321.69;125667;1094;102945;-70
2021/08/17 05:56:06;;;;;;;18.13;5.67;;;;;;;18.07;68.37;98313.42;125667;1096;103049;-72
2021/08/17 05:58:35;;;;;;;15.50;5.47;;;;;;;18.06;68.24;98326.05;125701;1096;103090;-69
2021/08/17 06:01:04;;;;;;;16.63;5.03;;;;;;;18.09;68.17;98336.47;125655;1097;103002;-71
2021/08/17 06:03:49;;;;;;;16.27;5.30;;;;;;;18.05;68.53;98342.36;125672;1096;103029;-69
2021/08/17 06:06:17;;;;;;;14.50;4.70;;;;;;;18.04;68.31;98341.53;125674;1096;102913;-68
2021/08/17 06:08:46;;;;;;;12.50;4.63;;;;;;;18.05;68.72;98345.05;125648;1094;102978;-73
2021/08/17 06:11:14;;;;;;;13.10;4.80;;;;;;;18.04;68.27;98357.69;125737;1096;103060;-69
2021/08/17 06:13:43;;;;;;;13.63;4.83;;;;;;;18.09;68.22;98367.91;125672;1096;103097;-70
2021/08/17 06:16:11;;;;;;;11.67;4.57;;;;;;;18.08;68.25;98387.75;125591;1096;103425;-69
2021/08/17 06:18:40;;;;;;;11.27;4.37;;;;;;;18.09;68.30;98411.81;125654;1096;103438;-71
2021/08/17 06:21:09;;;;;;;14.60;5.10;;;;;;;18.09;68.77;98425.27;125653;1093;103105;-71
2021/08/17 06:23:37;;;;;;;12.43;4.10;;;;;;;18.08;68.40;98458.58;125627;1093;104116;-73
2021/08/17 06:26:05;;;;;;;10.73;4.47;;;;;;;18.06;68.32;98467.81;125675;1094;102965;-73
2021/08/17 06:28:34;;;;;;;10.63;4.43;;;;;;;18.07;68.65;98442.59;125659;1093;103004;-69
2021/08/17 06:31:02;;;;;;;10.83;4.30;;;;;;;18.04;68.28;98406.12;125617;1093;102916;-68
2021/08/17 06:33:31;;;;;;;11.00;4.00;;;;;;;18.03;68.22;98422.42;125594;1093;103124;-72
2021/08/17 06:35:59;;;;;;;12.17;4.60;;;;;;;18.01;68.67;98430.69;125654;1093;102935;-68
2021/08/17 06:38:28;;;;;;;14.05;5.00;;;;;;;18.00;68.38;98437.08;125648;1093;102997;-70
2021/08/17 06:40:56;;;;;;;13.57;4.47;;;;;;;17.98;68.19;98456.04;125606;1091;103009;-71
2021/08/17 06:43:29;;;;;;;15.45;5.40;;;;;;;17.98;68.24;98469.49;125730;1092;102913;-72
2021/08/17 06:45:57;;;;;;;13.30;4.93;;;;;;;17.92;68.16;98474.74;125657;1093;102934;-71
2021/08/17 06:48:27;;;;;;;12.87;5.00;;;;;;;17.87;68.54;98469.89;125688;1093;102911;-70
2021/08/17 06:50:55;;;;;;;12.00;4.40;;;;;;;17.83;68.45;98493.59;125679;1093;102928;-71
2021/08/17 06:53:27;;;;;;;13.00;4.57;;;;;;;17.80;68.18;98482.35;125653;1093;103031;-70
2021/08/17 06:55:56;;;;;;;10.50;4.03;;;;;;;17.78;68.66;98460.98;125658;1093;103413;-70
2021/08/17 06:58:24;;;;;;;13.20;4.60;;;;;;;17.78;68.51;98452.92;125659;1093;102933;-69
2021/08/17 07:00:53;;;;;;;12.77;4.37;;;;;;;17.80;68.31;98447.38;125683;1094;103031;-71
2021/08/17 07:03:22;;;;;;;13.30;5.00;;;;;;;17.79;68.42;98410.73;125654;1096;103009;-72
2021/08/17 07:05:51;;;;;;;14.10;4.70;;;;;;;17.79;68.32;98368.52;125648;1093;103005;-70
2021/08/17 07:08:19;;;;;;;10.07;4.40;;;;;;;17.82;68.36;98395.08;125671;1093;103071;-70
2021/08/17 07:10:48;;;;;;;11.80;4.13;;;;;;;17.88;68.44;98411.53;125694;1093;103010;-71
2021/08/17 07:13:26;;;;;;;13.17;4.60;;;;;;;18.05;68.33;98397.03;125693;1093;103022;-71
2021/08/17 07:15:54;;;;;;;15.67;4.90;;;;;;;18.19;68.26;98362.28;125673;1096;103034;-70
2021/08/17 07:18:24;;;;;;;13.00;4.17;;;;;;;18.28;68.48;98345.92;125680;1093;103061;-70
2021/08/17 07:20:53;;;;;;;10.97;4.43;;;;;;;18.45;68.52;98361.94;125674;1092;103007;-70
2021/08/17 07:23:21;;;;;;;14.07;4.30;;;;;;;18.64;68.27;98378.64;125683;1093;103100;-69
2021/08/17 07:25:50;;;;;;;12.13;4.00;;;;;;;18.84;68.70;98392.45;125714;1093;102916;-69
2021/08/17 07:28:20;;;;;;;15.00;4.20;;;;;;;18.85;68.45;98423.77;125690;1095;103085;-69
2021/08/17 07:30:49;;;;;;;10.95;4.10;;;;;;;18.82;68.38;98443.80;125705;1096;103030;-69
2021/08/17 07:33:18;;;;;;;10.20;4.43;;;;;;;18.73;68.52;98469.15;125717;1096;103065;-69
2021/08/17 07:35:48;;;;;;;12.20;4.67;;;;;;;18.62;68.52;98491.92;125663;1096;103012;-68
2021/08/17 07:38:16;;;;;;;16.20;4.90;;;;;;;18.54;68.29;98498.20;125774;1094;103009;-72
2021/08/17 07:40:45;;;;;;;14.53;4.87;;;;;;;18.47;68.48;98496.41;125687;1094;103043;-72
2021/08/17 07:43:15;;;;;;;11.67;4.43;;;;;;;18.41;68.36;98503.31;125668;1094;103031;-72
2021/08/17 07:45:43;;;;;;;20.10;5.25;;;;;;;18.38;68.69;98504.52;125715;1095;102991;-71
2021/08/17 07:48:32;;;;;;;12.37;4.80;;;;;;;18.38;68.60;98509.91;125668;1095;103430;-71
2021/08/17 07:51:01;;;;;;;15.57;4.97;;;;;;;18.29;68.31;98503.73;125718;1094;103007;-70
2021/08/17 07:53:30;;;;;;;14.60;4.87;;;;;;;18.25;68.17;98501.55;125720;1093;103020;-72
2021/08/17 07:55:59;;;;;;;16.13;5.20;;;;;;;18.20;68.25;98504.77;125683;1093;103079;-73
2021/08/17 07:58:27;;;;;;;13.77;5.17;;;;;;;18.20;68.14;98511.99;125697;1094;103065;-72
2021/08/17 08:00:55;;;;;;;14.87;5.83;;;;;;;18.18;68.12;98508.63;125724;1093;103009;-72
2021/08/17 08:03:26;;;;;;;15.27;5.27;;;;;;;18.19;68.60;98510.31;125763;1093;102911;-72
2021/08/17 08:05:54;;;;;;;12.33;5.07;;;;;;;18.22;68.76;98516.20;125744;1093;102920;-74
2021/08/17 08:08:22;;;;;;;17.00;5.83;;;;;;;18.27;68.78;98511.14;125676;1092;103028;-72
2021/08/17 08:10:52;;;;;;;15.87;5.60;;;;;;;18.32;68.27;98521.38;125660;1093;102962;-71
2021/08/17 08:13:21;;;;;;;16.33;5.93;;;;;;;18.31;68.59;98514.31;125696;1092;103345;-71
2021/08/17 08:15:50;;;;;;;18.43;5.50;;;;;;;18.31;68.63;98522.39;125682;1094;102937;-70
2021/08/17 08:18:18;;;;;;;14.63;5.97;;;;;;;18.33;68.66;98520.36;125690;1093;103033;-70
2021/08/17 08:20:47;;;;;;;15.70;5.87;;;;;;;18.37;68.48;98532.45;125673;1092;102947;-71
2021/08/17 08:23:16;;;;;;;14.50;5.73;;;;;;;18.36;68.59;98524.54;125707;1096;102995;-71
2021/08/17 08:25:45;;;;;;;18.73;6.53;;;;;;;18.35;68.52;98518.33;125645;1095;103056;-79
2021/08/17 08:28:13;;;;;;;13.33;6.30;;;;;;;18.35;68.42;98501.33;125720;1093;102998;-78
2021/08/17 08:30:42;;;;;;;15.73;6.90;;;;;;;18.35;68.25;98479.78;125675;1093;103002;-80
2021/08/17 08:33:12;;;;;;;15.27;6.40;;;;;;;18.38;68.47;98479.44;125717;1093;103029;-79
2021/08/17 08:35:40;;;;;;;12.10;5.83;;;;;;;18.36;68.19;98468.86;125686;1093;103006;-78
2021/08/17 08:38:10;;;;;;;21.13;6.57;;;;;;;18.41;68.34;98469.17;125610;1094;102997;-77
2021/08/17 08:40:39;;;;;;;17.47;6.83;;;;;;;18.53;68.70;98461.52;125699;1094;103078;-79
2021/08/17 08:43:07;;;;;;;15.60;6.70;;;;;;;18.66;68.13;98457.41;125674;1093;102977;-79
2021/08/17 08:45:39;;;;;;;17.37;6.83;;;;;;;18.63;68.46;98461.28;125654;1093;103065;-77
2021/08/17 08:48:07;;;;;;;16.07;6.83;;;;;;;18.62;68.71;98469.55;125725;1093;103025;-79
2021/08/17 08:50:36;;;;;;;17.10;6.83;;;;;;;18.60;68.60;98461.63;125657;1093;103081;-86
2021/08/17 08:53:05;;;;;;;16.77;6.73;;;;;;;18.51;68.61;98468.11;125685;1092;103106;-77
2021/08/17 08:55:33;;;;;;;16.03;6.20;;;;;;;18.45;68.24;98470.50;125731;1093;102636;-75
2021/08/17 08:58:02;;;;;;;18.20;7.47;;;;;;;18.43;68.63;98483.30;125619;1092;102932;-76
2021/08/17 09:00:31;;;;;;;16.80;7.33;;;;;;;18.38;68.09;98482.98;125665;1093;103090;-73
2021/08/17 09:02:59;;;;;;;17.87;7.40;;;;;;;18.32;68.31;98485.55;125614;1093;102998;-75
2021/08/17 09:05:29;;;;;;;16.27;7.40;;;;;;;18.28;68.16;98491.28;125660;1094;102989;-76
2021/08/17 09:08:03;;;;;;;16.50;7.10;;;;;;;18.29;68.19;98494.80;125668;1093;103289;-76
2021/08/17 09:10:31;;;;;;;16.97;7.67;;;;;;;18.29;68.20;98519.88;125678;1093;103013;-75
2021/08/17 09:13:00;;;;;;;15.83;7.03;;;;;;;18.27;68.72;98535.37;125632;1096;102988;-74
2021/08/17 09:15:33;;;;;;;22.10;8.63;;;;;;;18.22;68.65;98545.81;125696;1094;103012;-74
2021/08/17 09:18:07;;;;;;;18.70;8.35;;;;;;;18.17;68.28;98552.71;125672;1093;103054;-74
2021/08/17 09:20:42;;;;;;;16.07;7.33;;;;;;;18.12;68.71;98564.86;125721;1093;103086;-74
2021/08/17 09:23:36;;;;;;;15.57;7.60;;;;;;;18.07;68.18;98580.69;125654;1093;103043;-75
2021/08/17 09:26:26;;;;;;;23.63;9.53;;;;;;;18.02;68.20;98598.34;125685;1093;102913;-73
2021/08/17 09:29:02;;;;;;;17.83;8.47;;;;;;;17.97;68.59;98605.04;125660;1094;103445;-76
2021/08/17 09:31:37;;;;;;;17.53;7.70;;;;;;;17.93;68.52;98611.77;125697;1093;103012;-77
2021/08/17 09:34:10;;;;;;;17.63;8.40;;;;;;;17.89;68.30;98601.53;125689;1093;103121;-76
2021/08/17 09:36:41;;;;;;;17.83;8.43;;;;;;;17.88;68.36;98589.95;125673;1093;103027;-76
2021/08/17 09:39:12;;;;;;;14.40;6.73;;;;;;;17.87;68.33;98590.95;125683;1094;103016;-76
2021/08/17 09:41:40;;;;;;;14.80;7.33;;;;;;;17.83;68.19;98592.30;125617;1094;102942;-76
2021/08/17 09:44:10;;;;;;;16.57;5.83;;;;;;;17.80;68.10;98595.33;125719;1093;102997;-76
2021/08/17 09:46:40;;;;;;;14.40;6.13;;;;;;;17.76;68.52;98594.81;125661;1093;103098;-76
2021/08/17 09:49:18;;;;;;;11.60;5.37;;;;;;;17.76;68.36;98602.05;125673;1093;102908;-75
2021/08/17 09:51:47;;;;;;;9.73;4.00;;;;;;;17.68;68.31;98611.80;125707;1093;103009;-76
2021/08/17 09:54:23;;;;;;;6.00;3.00;;;;;;;17.49;68.09;98630.98;125685;1093;103408;-77
2021/08/17 09:57:02;;;;;;;4.27;2.90;;;;;;;17.30;68.04;98648.27;125704;1093;103080;-77
2021/08/17 09:59:33;;;;;;;5.63;3.10;;;;;;;17.15;68.18;98658.78;125685;1093;102952;-76
2021/08/17 10:02:03;;;;;;;7.33;2.90;;;;;;;16.96;68.37;98661.59;125596;1093;103054;-74
2021/08/17 10:04:33;;;;;;;8.27;3.00;;;;;;;16.79;68.22;98674.09;125727;1093;102913;-75
2021/08/17 10:07:04;;;;;;;6.23;2.90;;;;;;;16.62;68.26;98678.55;125733;1093;103064;-75
2021/08/17 10:09:35;;;;;;;6.70;3.40;;;;;;;16.51;68.48;98697.60;125694;1093;103003;-76
2021/08/17 10:12:06;;;;;;;7.80;3.05;;;;;;;16.35;68.45;98696.52;125674;1093;102928;-75
2021/08/17 10:14:35;;;;;;;8.10;3.43;;;;;;;16.18;68.40;98700.08;125655;1096;103218;-76
2021/08/17 10:17:04;;;;;;;6.90;3.40;;;;;;;16.01;68.58;98708.03;125707;1092;102935;-76
2021/08/17 10:19:34;;;;;;;7.57;3.30;;;;;;;15.85;68.50;98706.02;125660;1096;103044;-75
2021/08/17 10:22:06;;;;;;;9.73;3.83;;;;;;;15.75;68.48;98715.98;125732;1093;102962;-76
2021/08/17 10:24:36;;;;;;;9.23;3.40;;;;;;;15.63;68.72;98721.56;125684;1093;103029;-76
2021/08/17 10:27:19;;;;;;;8.33;3.17;;;;;;;15.50;68.44;98730.98;125658;1093;103068;-76
2021/08/17 10:30:25;;;;;;;11.67;3.13;;;;;;;15.34;68.30;98724.44;125704;1093;103406;-76
2021/08/17 10:32:58;;;;;;;8.90;2.83;;;;;;;15.22;68.17;98741.74;125700;1093;103061;-76
2021/08/17 10:35:29;;;;;;;;;;;;;;;15.12;68.16;98733.73;125735;1092;102993;-75
2021/08/17 10:38:12;;;;;;;8.97;2.87;;;;;;;15.01;68.08;98724.07;125696;1093;103112;-75
2021/08/17 10:40:52;;;;;;;;;;;;;;;14.89;68.15;98723.43;125707;1093;102955;-76
2021/08/17 10:43:26;;;;;;;8.20;2.90;;;;;;;14.83;68.19;98726.69;125721;1093;102920;-76
2021/08/17 10:46:01;;;;;;;13.33;3.30;;;;;;;14.83;68.22;98735.59;125661;1093;103057;-77
2021/08/17 10:48:54;;;;;;;12.17;2.97;;;;;;;14.79;68.22;98728.83;125724;1093;103090;-75
2021/08/17 10:51:26;;;;;;;8.17;2.57;;;;;;;14.83;68.38;98742.76;125691;1093;103023;-75
2021/08/17 10:54:03;;;;;;;10.70;3.40;;;;;;;14.83;68.24;98743.62;125667;1093;103008;-75
2021/08/17 10:56:36;;;;;;;7.45;2.85;;;;;;;14.82;68.21;98739.25;125718;1093;103009;-75
2021/08/17 10:59:06;;;;;;;;;;;;;;;14.85;68.39;98757.70;125679;1093;103164;-77
2021/08/17 11:01:39;;;;;;;6.27;2.50;;;;;;;14.84;68.42;98755.16;125699;1093;102932;-76
2021/08/17 11:04:18;;;;;;;7.77;2.73;;;;;;;14.82;68.28;98749.96;125743;1093;103020;-76
2021/08/17 11:06:51;;;;;;;9.60;2.67;;;;;;;14.84;68.41;98747.98;125672;1093;102916;-76
2021/08/17 11:09:31;;;;;;;9.10;2.63;;;;;;;14.88;68.14;98754.70;125681;1093;103015;-76
2021/08/17 11:12:08;;;;;;;6.00;2.60;;;;;;;14.91;68.17;98750.91;125646;1093;103012;-76
2021/08/17 11:14:39;;;;;;;7.47;2.40;;;;;;;14.92;68.02;98741.88;125683;1094;103122;-76
2021/08/17 11:17:11;;;;;;;6.83;2.63;;;;;;;14.87;68.19;98754.86;125673;1093;103020;-76
2021/08/17 11:19:46;;;;;;;4.80;2.40;;;;;;;14.84;68.16;98747.98;125656;1093;103071;-76
2021/08/17 11:22:18;;;;;;;7.40;2.53;;;;;;;14.86;68.14;98759.39;125707;1093;103004;-75